createdAt,value
2019-01-06T00:01:45.713Z,73.77
2019-01-06T00:04:33.705Z,73.33
2019-01-06T00:07:04.892Z,73.18
2019-01-06T00:09:36.088Z,73.16
2019-01-06T00:12:07.373Z,72.86
2019-01-06T00:14:55.430Z,73.71
2019-01-06T00:17:43.603Z,73.49
2019-01-06T00:20:14.514Z,73.34
2019-01-06T00:22:54.836Z,73.33
2019-01-06T00:25:35.415Z,73.03
2019-01-06T00:28:19.220Z,73.35
2019-01-06T00:30:52.908Z,73.24
2019-01-06T00:33:36.150Z,72.85
2019-01-06T00:36:20.036Z,73.38
2019-01-06T00:38:57.300Z,73.84
2019-01-06T00:41:28.584Z,74.23
2019-01-06T00:44:02.403Z,73.90
2019-01-06T00:46:40.005Z,73.79
2019-01-06T00:49:24.891Z,74.77
2019-01-06T00:51:56.225Z,75.16
2019-01-06T00:54:27.171Z,74.51
2019-01-06T00:57:05.230Z,74.61
2019-01-06T00:59:42.545Z,75.04
2019-01-06T01:02:13.815Z,74.48
2019-01-06T01:05:06.889Z,73.93
2019-01-06T01:07:50.298Z,74.10
2019-01-06T01:10:25.331Z,74.52
2019-01-06T01:12:59.961Z,74.58
2019-01-06T01:15:37.763Z,74.83
2019-01-06T01:18:21.409Z,74.30
2019-01-06T01:21:01.517Z,73.61
2019-01-06T01:23:45.561Z,73.55
2019-01-06T01:26:33.745Z,73.92
2019-01-06T01:29:21.520Z,74.56
2019-01-06T01:32:07.849Z,74.69
2019-01-06T01:34:39.144Z,75.16
2019-01-06T01:37:28.763Z,74.89
2019-01-06T01:40:15.417Z,74.83
2019-01-06T01:42:46.833Z,75.23
2019-01-06T01:45:18.126Z,75.24
2019-01-06T01:47:58.959Z,75.05
2019-01-06T01:50:39.332Z,74.65
2019-01-06T01:53:19.927Z,74.67
2019-01-06T01:56:03.354Z,74.88
2019-01-06T01:58:51.172Z,75.40
2019-01-06T02:01:37.180Z,75.02
2019-01-06T02:04:26.812Z,74.84
2019-01-06T02:07:06.931Z,74.45
2019-01-06T02:09:50.069Z,74.22
2019-01-06T02:12:36.027Z,74.52
2019-01-06T02:15:09.007Z,74.61
2019-01-06T02:17:49.354Z,74.53
2019-01-06T02:20:27.451Z,74.78
2019-01-06T02:23:13.468Z,74.90
2019-01-06T02:25:50.748Z,75.11
2019-01-06T02:28:27.840Z,74.88
2019-01-06T02:31:17.441Z,74.72
2019-01-06T02:33:56.496Z,74.77
2019-01-06T02:36:27.420Z,75.49
2019-01-06T02:39:10.704Z,75.54
2019-01-06T02:41:53.529Z,75.29
2019-01-06T02:44:31.101Z,75.67
2019-01-06T02:47:16.686Z,76.09
2019-01-06T02:49:57.421Z,75.43
2019-01-06T02:52:31.015Z,75.22
2019-01-06T02:55:07.951Z,75.41
2019-01-06T02:57:45.572Z,75.23
2019-01-06T03:00:26.123Z,75.13
2019-01-06T03:03:03.326Z,75.08
2019-01-06T03:05:34.170Z,75.35
2019-01-06T03:08:04.969Z,75.30
2019-01-06T03:10:36.121Z,75.60
2019-01-06T03:13:07.118Z,75.55
2019-01-06T03:15:44.661Z,75.58
2019-01-06T03:18:25.016Z,75.58
2019-01-06T03:21:13.325Z,75.84
2019-01-06T03:24:01.459Z,75.92
2019-01-06T03:26:50.153Z,75.89
2019-01-06T03:29:21.239Z,75.97
2019-01-06T03:31:55.322Z,76.12
2019-01-06T03:34:26.478Z,76.12
2019-01-06T03:36:57.595Z,76.23
2019-01-06T03:39:46.845Z,76.46
2019-01-06T03:42:27.277Z,76.59
2019-01-06T03:44:58.624Z,76.12
2019-01-06T03:47:32.333Z,75.95
2019-01-06T03:50:10.292Z,75.88
2019-01-06T03:52:58.168Z,76.32
2019-01-06T03:55:41.666Z,76.28
2019-01-06T03:58:12.928Z,76.07
2019-01-06T04:00:56.215Z,76.21
2019-01-06T04:03:27.434Z,75.79
2019-01-06T04:06:11.211Z,76.12
2019-01-06T04:08:52.123Z,75.69
2019-01-06T04:11:40.147Z,75.74
2019-01-06T04:14:17.315Z,76.33
2019-01-06T04:17:04.306Z,76.33
2019-01-06T04:19:38.399Z,75.89
2019-01-06T04:22:12.202Z,75.65
2019-01-06T04:24:58.377Z,75.84
2019-01-06T04:27:39.349Z,76.11
2019-01-06T04:30:10.605Z,76.15
2019-01-06T04:32:41.775Z,76.89
2019-01-06T04:35:29.755Z,77.03
2019-01-06T04:38:01.026Z,76.63
2019-01-06T04:40:49.093Z,76.77
2019-01-06T04:43:20.304Z,77.05
2019-01-06T04:46:00.793Z,77.09
2019-01-06T04:48:49.125Z,76.46
2019-01-06T04:51:26.692Z,75.96
2019-01-06T04:54:13.528Z,76.18
2019-01-06T04:56:49.123Z,76.31
2019-01-06T04:59:38.026Z,76.40
2019-01-06T05:02:21.524Z,76.48
2019-01-06T05:04:52.639Z,76.49
2019-01-06T05:07:39.319Z,76.59
2019-01-06T05:10:20.731Z,76.79
2019-01-06T05:12:51.973Z,76.71
2019-01-06T05:15:29.889Z,76.66
2019-01-06T05:18:07.930Z,76.56
2019-01-06T05:20:48.433Z,76.85
2019-01-06T05:23:20.065Z,76.68
2019-01-06T05:26:03.912Z,76.41
2019-01-06T05:28:52.977Z,76.15
2019-01-06T05:31:24.237Z,76.57
2019-01-06T05:33:55.567Z,76.92
2019-01-06T05:36:27.012Z,77.28
2019-01-06T05:38:58.223Z,77.67
2019-01-06T05:41:46.297Z,77.45
2019-01-06T05:44:23.708Z,77.44
2019-01-06T05:47:05.390Z,76.97
2019-01-06T05:49:52.146Z,77.09
2019-01-06T05:52:32.639Z,77.14
2019-01-06T05:55:10.182Z,76.84
2019-01-06T05:57:53.994Z,76.46
2019-01-06T06:00:25.217Z,76.72
2019-01-06T06:02:56.072Z,76.46
2019-01-06T06:05:27.512Z,76.63
2019-01-06T06:08:06.441Z,76.55
2019-01-06T06:10:50.083Z,76.90
2019-01-06T06:13:21.150Z,76.92
2019-01-06T06:15:56.386Z,77.18
2019-01-06T06:18:45.203Z,77.14
2019-01-06T06:21:23.020Z,77.19
2019-01-06T06:23:54.181Z,77.15
2019-01-06T06:26:37.753Z,76.74
2019-01-06T06:29:15.530Z,76.71
2019-01-06T06:31:58.904Z,76.98
2019-01-06T06:34:47.254Z,76.70
2019-01-06T06:37:28.112Z,77.07
2019-01-06T06:40:10.165Z,77.23
2019-01-06T06:42:53.670Z,76.72
2019-01-06T06:45:34.576Z,77.01
2019-01-06T06:48:15.930Z,76.96
2019-01-06T06:51:14.747Z,76.63
2019-01-06T06:54:01.017Z,76.68
2019-01-06T06:56:38.144Z,76.77
2019-01-06T06:59:15.978Z,76.98
2019-01-06T07:02:22.841Z,77.25
2019-01-06T07:05:06.857Z,76.98
2019-01-06T07:07:38.095Z,77.01
2019-01-06T07:10:09.321Z,77.04
2019-01-06T07:12:51.811Z,77.28
2019-01-06T07:15:31.250Z,77.48
2019-01-06T07:18:12.079Z,77.61
2019-01-06T07:20:52.190Z,77.42
2019-01-06T07:23:38.794Z,77.03
2019-01-06T07:26:26.252Z,76.83
2019-01-06T07:29:14.607Z,77.57
2019-01-06T07:31:45.839Z,77.75
2019-01-06T07:34:33.746Z,77.57
2019-01-06T07:37:04.801Z,77.41
2019-01-06T07:39:51.251Z,77.55
2019-01-06T07:42:30.813Z,77.67
2019-01-06T07:45:18.606Z,77.42
2019-01-06T07:47:49.891Z,77.07
2019-01-06T07:50:27.707Z,77.17
2019-01-06T07:53:17.607Z,77.28
2019-01-06T07:55:48.979Z,77.38
2019-01-06T07:58:21.107Z,77.06
2019-01-06T08:00:59.258Z,77.24
2019-01-06T08:03:44.638Z,77.84
2019-01-06T08:06:34.151Z,77.99
2019-01-06T08:09:06.686Z,78.06
2019-01-06T08:11:55.388Z,77.80
2019-01-06T08:14:43.652Z,77.74
2019-01-06T08:17:21.073Z,77.72
2019-01-06T08:20:01.300Z,78.04
2019-01-06T08:22:51.535Z,77.93
2019-01-06T08:25:41.496Z,78.00
2019-01-06T08:28:24.786Z,77.83
2019-01-06T08:31:13.608Z,78.02
2019-01-06T08:33:47.130Z,78.38
2019-01-06T08:36:27.365Z,78.44
2019-01-06T08:39:03.765Z,78.54
2019-01-06T08:41:51.927Z,78.90
2019-01-06T08:44:29.363Z,79.05
2019-01-06T08:47:00.579Z,78.84
2019-01-06T08:49:31.831Z,78.71
2019-01-06T08:52:02.751Z,78.65
2019-01-06T08:54:50.834Z,78.95
2019-01-06T08:57:21.984Z,79.24
2019-01-06T09:00:10.256Z,79.34
2019-01-06T09:02:57.960Z,79.42
2019-01-06T09:05:46.156Z,79.45
2019-01-06T09:08:26.855Z,79.58
2019-01-06T09:11:10.613Z,79.63
2019-01-06T09:13:48.496Z,79.83
2019-01-06T09:16:26.181Z,79.80
2019-01-06T09:19:14.523Z,79.62
2019-01-06T09:22:02.767Z,79.37
2019-01-06T09:24:33.810Z,79.20
2019-01-06T09:27:10.240Z,78.89
2019-01-06T09:29:50.883Z,78.69
2019-01-06T09:32:40.396Z,78.56
2019-01-06T09:35:12.237Z,78.47
2019-01-06T09:37:43.433Z,78.32
2019-01-06T09:40:31.593Z,78.41
2019-01-06T09:43:19.362Z,79.34
2019-01-06T09:46:10.001Z,79.09
2019-01-06T09:48:45.574Z,78.76
2019-01-06T09:51:19.486Z,78.79
2019-01-06T09:53:50.354Z,78.93
2019-01-06T09:56:34.100Z,79.30
2019-01-06T09:59:23.588Z,79.68
2019-01-06T10:02:10.626Z,79.39
2019-01-06T10:04:57.228Z,79.98
2019-01-06T10:07:28.340Z,79.95
2019-01-06T10:10:05.528Z,80.10
2019-01-06T10:12:44.871Z,80.89
2019-01-06T10:15:28.252Z,81.14
2019-01-06T10:18:02.894Z,81.45
2019-01-06T10:20:43.677Z,81.06
2019-01-06T10:23:17.087Z,80.10
2019-01-06T10:26:05.521Z,77.66
2019-01-06T10:28:54.864Z,72.94
2019-01-06T10:31:41.362Z,67.55
2019-01-06T10:34:30.960Z,64.61
2019-01-06T10:37:11.421Z,62.28
2019-01-06T10:39:57.689Z,61.01
2019-01-06T10:42:32.042Z,59.65
2019-01-06T10:45:03.096Z,58.25
2019-01-06T10:47:51.804Z,57.84
2019-01-06T10:50:22.763Z,57.72
2019-01-06T10:52:53.987Z,56.79
2019-01-06T10:55:42.192Z,55.67
2019-01-06T10:58:30.402Z,54.11
2019-01-06T11:01:07.563Z,53.54
2019-01-06T11:03:46.704Z,52.32
2019-01-06T11:06:27.542Z,52.21
2019-01-06T11:08:58.531Z,51.66
2019-01-06T11:11:47.920Z,51.08
2019-01-06T11:14:19.404Z,51.27
2019-01-06T11:17:09.417Z,51.00
2019-01-06T11:19:40.883Z,48.66
2019-01-06T11:22:18.890Z,45.88
2019-01-06T11:24:56.639Z,45.52
2019-01-06T11:27:44.829Z,44.94
2019-01-06T11:30:51.639Z,43.70
2019-01-06T11:33:29.108Z,42.88
2019-01-06T11:36:09.847Z,43.17
2019-01-06T11:38:41.800Z,42.06
2019-01-06T11:41:29.973Z,41.26
2019-01-06T11:44:09.377Z,40.47
2019-01-06T11:46:43.447Z,39.67
2019-01-06T11:49:24.407Z,39.11
2019-01-06T11:52:11.169Z,39.17
2019-01-06T11:54:51.831Z,39.33
2019-01-06T11:57:29.531Z,39.31
2019-01-06T12:00:00.912Z,38.38
2019-01-06T12:02:41.065Z,38.06
2019-01-06T12:05:21.015Z,37.49
2019-01-06T12:08:09.627Z,37.70
2019-01-06T12:10:40.762Z,38.57
2019-01-06T12:13:18.018Z,38.87
2019-01-06T12:15:55.648Z,38.51
2019-01-06T12:18:32.997Z,38.34
2019-01-06T12:21:10.765Z,37.69
2019-01-06T12:23:48.436Z,36.40
2019-01-06T12:26:36.793Z,35.30
2019-01-06T12:29:16.841Z,37.84
2019-01-06T12:31:55.980Z,38.52
2019-01-06T12:34:39.795Z,38.67
2019-01-06T12:37:10.904Z,39.04
2019-01-06T12:39:48.685Z,38.11
2019-01-06T12:42:36.860Z,38.36
2019-01-06T12:45:14.353Z,38.62
2019-01-06T12:47:45.649Z,37.30
2019-01-06T12:50:26.223Z,35.65
2019-01-06T12:53:01.576Z,35.28
2019-01-06T12:55:41.707Z,35.36
2019-01-06T12:58:19.845Z,34.98
2019-01-06T13:01:08.191Z,35.84
2019-01-06T13:03:55.195Z,35.11
2019-01-06T13:06:32.208Z,35.05
2019-01-06T13:09:12.783Z,35.18
2019-01-06T13:12:02.062Z,35.88
2019-01-06T13:14:51.804Z,34.89
2019-01-06T13:17:28.368Z,34.61
2019-01-06T13:20:16.586Z,33.60
2019-01-06T13:23:06.255Z,33.54
2019-01-06T13:25:37.832Z,32.51
2019-01-06T13:28:09.317Z,31.73
2019-01-06T13:30:47.772Z,31.48
2019-01-06T13:33:34.322Z,31.54
2019-01-06T13:36:09.123Z,30.88
2019-01-06T13:38:39.583Z,31.42
2019-01-06T13:41:26.768Z,32.86
2019-01-06T13:44:15.246Z,32.25
2019-01-06T14:02:58.469Z,31.61
2019-01-06T14:05:42.503Z,31.57
2019-01-06T14:08:26.213Z,31.90
2019-01-06T14:11:03.890Z,32.63
2019-01-06T14:13:42.837Z,32.03
2019-01-06T14:16:21.694Z,31.73
2019-01-06T14:18:53.137Z,31.59
2019-01-06T14:21:37.018Z,31.54
2019-01-06T14:24:08.359Z,31.48
2019-01-06T14:26:43.659Z,31.92
2019-01-06T14:29:15.090Z,32.59
2019-01-06T14:31:58.652Z,32.86
2019-01-06T14:34:33.630Z,33.19
2019-01-06T14:37:23.122Z,33.21
2019-01-06T17:16:23.264Z,55.64
2019-01-06T17:21:34.186Z,56.03
2019-01-06T17:24:07.807Z,56.46
2019-01-06T17:26:41.586Z,56.74
2019-01-06T17:29:15.499Z,56.88
2019-01-06T17:31:58.455Z,57.22
2019-01-06T17:34:31.585Z,57.50
2019-01-06T17:37:02.021Z,57.94
2019-01-06T17:39:32.660Z,58.42
2019-01-06T17:42:05.714Z,58.88
2019-01-06T17:44:36.180Z,59.21
2019-01-06T17:47:22.755Z,59.35
2019-01-06T17:49:53.412Z,59.75
2019-01-06T17:52:33.100Z,59.91
2019-01-06T17:55:21.699Z,60.52
2019-01-06T17:57:55.221Z,60.82
2019-01-06T18:00:34.756Z,61.70
2019-01-06T18:03:05.287Z,61.96
2019-01-06T18:05:51.716Z,62.06
2019-01-06T18:08:25.113Z,62.38
2019-01-06T18:10:55.499Z,63.26
2019-01-06T18:13:35.151Z,63.45
2019-01-06T18:16:05.598Z,63.67
2019-01-06T18:18:36.518Z,63.84
2019-01-06T18:21:16.327Z,64.23
2019-01-06T18:23:58.883Z,64.36
2019-01-06T18:26:29.521Z,64.07
2019-01-06T18:29:03.362Z,64.07
2019-01-06T18:31:50.485Z,64.14
2019-01-06T18:34:24.160Z,64.45
2019-01-06T18:37:12.259Z,64.64
2019-01-06T18:39:42.691Z,65.54
2019-01-06T18:42:20.157Z,65.55
2019-01-06T18:45:09.173Z,65.92
2019-01-06T18:47:41.109Z,65.76
2019-01-06T18:50:28.095Z,66.09
2019-01-06T18:52:58.872Z,66.27
2019-01-06T18:55:46.224Z,66.28
2019-01-06T18:58:33.733Z,66.48
2019-01-06T19:01:04.151Z,66.62
2019-01-06T19:03:40.503Z,66.49
2019-01-06T19:06:11.694Z,66.62
2019-01-06T19:08:46.243Z,67.13
2019-01-06T19:11:23.208Z,67.17
2019-01-06T19:14:02.850Z,67.60
2019-01-06T19:16:36.395Z,67.97
2019-01-06T19:19:22.856Z,67.99
2019-01-06T19:22:10.665Z,67.95
2019-01-06T19:24:45.393Z,67.88
2019-01-06T19:27:32.833Z,68.33
2019-01-06T19:30:20.692Z,68.57
2019-01-06T19:33:09.219Z,69.52
2019-01-06T19:35:40.714Z,69.38
2019-01-06T19:38:14.294Z,69.55
2019-01-06T19:41:03.441Z,69.56
2019-01-06T19:43:43.237Z,69.86
2019-01-06T19:46:19.756Z,69.86
2019-01-06T19:48:56.495Z,69.82
2019-01-06T19:51:27.429Z,69.76
2019-01-06T19:54:03.877Z,69.80
2019-01-06T19:56:37.026Z,69.92
2019-01-06T19:59:17.048Z,70.01
2019-01-06T20:01:51.487Z,69.91
2019-01-06T20:04:40.884Z,69.22
2019-01-06T20:07:18.712Z,69.32
2019-01-06T20:10:05.335Z,68.75
2019-01-06T20:12:39.223Z,69.60
2019-01-06T20:15:16.932Z,70.14
2019-01-06T20:17:57.432Z,69.82
2019-01-06T20:20:32.633Z,69.57
2019-01-06T20:23:10.578Z,69.46
2019-01-06T20:25:57.346Z,69.55
2019-01-06T20:28:36.009Z,69.41
2019-01-06T20:31:20.156Z,69.83
2019-01-06T20:34:08.942Z,70.87
2019-01-06T20:36:40.921Z,71.47
2019-01-06T20:39:24.870Z,71.15
2019-01-06T20:42:10.596Z,70.91
2019-01-06T20:45:00.933Z,71.28
2019-01-06T20:47:39.231Z,71.74
2019-01-06T20:50:11.678Z,72.13
2019-01-06T20:52:51.449Z,72.92
2019-01-06T20:55:31.391Z,73.24
2019-01-06T20:58:16.903Z,72.82
2019-01-06T21:00:50.490Z,72.15
2019-01-06T21:03:39.505Z,72.31
2019-01-06T21:06:28.129Z,73.56
2019-01-06T21:09:05.461Z,73.04
2019-01-06T21:11:48.569Z,73.48
2019-01-06T21:14:31.837Z,73.66
2019-01-06T21:17:19.638Z,72.96
2019-01-06T21:19:54.586Z,72.90
2019-01-06T21:22:42.701Z,73.51
2019-01-06T21:25:14.036Z,73.43
2019-01-06T21:27:44.978Z,73.57
2019-01-06T21:30:21.492Z,73.77
2019-01-06T21:33:08.795Z,73.15
2019-01-06T21:35:52.367Z,72.53
2019-01-06T21:38:27.705Z,72.43
2019-01-06T21:41:01.278Z,72.04
2019-01-06T21:43:32.565Z,72.47
2019-01-06T21:46:20.454Z,73.57
2019-01-06T21:49:08.925Z,74.34
2019-01-06T21:51:40.073Z,74.31
2019-01-06T21:54:17.955Z,73.60
2019-01-06T21:57:08.070Z,74.26
2019-01-06T21:59:48.468Z,72.93
2019-01-06T22:02:32.341Z,72.36
2019-01-06T22:05:03.012Z,72.95
2019-01-06T22:07:43.469Z,72.99
2019-01-06T22:10:30.338Z,73.05
2019-01-06T22:13:01.423Z,73.58
2019-01-06T22:15:51.630Z,73.47
2019-01-06T22:18:35.280Z,74.01
2019-01-06T22:21:15.340Z,73.55
2019-01-06T22:24:02.653Z,73.50
2019-01-06T22:26:51.080Z,72.95
2019-01-06T22:29:38.038Z,73.27
2019-01-06T22:32:25.080Z,74.22
2019-01-06T22:35:02.060Z,74.13
2019-01-06T22:37:55.718Z,73.78
2019-01-06T22:40:33.239Z,73.73
2019-01-06T22:43:07.572Z,73.87
2019-01-06T22:45:44.609Z,74.75
2019-01-06T22:48:22.085Z,74.30
2019-01-06T22:50:55.584Z,74.10
2019-01-06T22:53:45.621Z,75.36
2019-01-06T22:56:33.842Z,76.51
2019-01-06T22:59:13.623Z,76.99
2019-01-06T23:01:45.081Z,77.00
2019-01-06T23:04:18.635Z,75.86
2019-01-06T23:07:07.299Z,75.71
2019-01-06T23:09:55.856Z,75.49
2019-01-06T23:12:27.156Z,75.28
2019-01-06T23:15:03.130Z,75.92
2019-01-06T23:17:34.910Z,75.89
2019-01-06T23:20:05.830Z,76.37
2019-01-06T23:22:45.303Z,75.92
2019-01-06T23:25:30.736Z,75.92
2019-01-06T23:28:04.153Z,75.76
2019-01-06T23:30:47.901Z,75.42
2019-01-06T23:33:19.124Z,75.15
2019-01-06T23:35:59.214Z,74.84
2019-01-06T23:38:47.427Z,75.38
2019-01-06T23:41:36.006Z,75.59
2019-01-06T23:44:15.962Z,75.90
2019-01-06T23:47:04.602Z,76.35
2019-01-06T23:49:52.619Z,76.50
2019-01-06T23:52:23.718Z,75.97
2019-01-06T23:55:06.774Z,75.43
2019-01-06T23:57:37.996Z,75.26
